createdAt,value
2023-05-10T00:01:57.640Z,11.16
2023-05-10T00:05:59.401Z,11.11
2023-05-10T00:10:02.248Z,11.26
2023-05-10T00:14:04.000Z,11.30
2023-05-10T00:18:05.668Z,11.25
2023-05-10T00:22:07.188Z,11.02
2023-05-10T00:26:10.029Z,10.95
2023-05-10T00:30:11.733Z,10.97
2023-05-10T00:34:13.240Z,10.90
2023-05-10T00:38:14.728Z,10.87
2023-05-10T00:42:17.540Z,11.06
2023-05-10T00:46:19.386Z,11.07
2023-05-10T00:50:20.956Z,11.00
2023-05-10T00:54:22.562Z,10.92
2023-05-10T00:58:25.422Z,10.74
2023-05-10T01:02:27.025Z,10.65
2023-05-10T01:06:28.739Z,10.64
2023-05-10T01:10:30.615Z,10.54
2023-05-10T01:14:34.124Z,10.49
2023-05-10T01:18:39.206Z,10.41
2023-05-10T01:22:57.001Z,10.26
2023-05-10T01:27:27.100Z,10.16
2023-05-10T01:31:42.976Z,10.11
2023-05-10T01:35:51.092Z,10.14
2023-05-10T01:40:01.362Z,10.04
2023-05-10T01:44:10.668Z,10.00
2023-05-10T01:48:15.191Z,9.89
2023-05-10T01:52:23.314Z,9.89
2023-05-10T01:56:27.377Z,10.03
2023-05-10T02:00:30.323Z,10.01
2023-05-10T02:04:34.049Z,10.01
2023-05-10T02:08:37.467Z,9.94
2023-05-10T02:12:42.887Z,9.88
2023-05-10T02:16:45.854Z,9.78
2023-05-10T02:20:48.030Z,9.80
2023-05-10T02:24:51.719Z,9.68
2023-05-10T02:28:54.521Z,9.58
2023-05-10T02:32:57.274Z,9.49
2023-05-10T02:37:00.480Z,9.52
2023-05-10T02:41:06.581Z,9.52
2023-05-10T02:45:12.549Z,9.44
2023-05-10T02:49:14.314Z,9.45
2023-05-10T02:53:19.352Z,9.54
2023-05-10T02:57:27.362Z,9.45
2023-05-10T03:01:28.972Z,9.49
2023-05-10T03:05:30.508Z,9.42
2023-05-10T03:09:32.688Z,9.52
2023-05-10T03:13:40.831Z,9.48
2023-05-10T03:17:48.680Z,9.54
2023-05-10T03:21:53.441Z,9.55
2023-05-10T03:25:55.319Z,9.51
2023-05-10T03:29:58.782Z,9.50
2023-05-10T03:34:00.312Z,9.43
2023-05-10T03:38:01.860Z,9.54
2023-05-10T03:42:03.419Z,9.57
2023-05-10T03:46:06.762Z,9.54
2023-05-10T03:50:08.939Z,9.50
2023-05-10T03:54:10.646Z,9.61
2023-05-10T03:58:12.307Z,9.64
2023-05-10T04:02:15.195Z,9.65
2023-05-10T04:06:16.751Z,9.72
2023-05-10T04:10:18.478Z,9.73
2023-05-10T04:14:20.201Z,9.79
2023-05-10T04:18:23.030Z,9.81
2023-05-10T04:22:24.506Z,9.80
2023-05-10T04:26:26.018Z,9.90
2023-05-10T04:30:27.525Z,9.97
2023-05-10T04:34:30.414Z,9.96
2023-05-10T04:38:32.099Z,9.99
2023-05-10T04:42:33.616Z,10.13
2023-05-10T04:46:35.254Z,10.20
2023-05-10T04:50:38.181Z,10.25
2023-05-10T04:54:39.678Z,10.33
2023-05-10T04:58:41.190Z,10.43
2023-05-10T05:02:43.794Z,10.53
2023-05-10T05:06:46.629Z,10.55
2023-05-10T05:10:49.117Z,10.66
2023-05-10T05:14:50.582Z,10.72
2023-05-10T05:18:52.067Z,10.80
2023-05-10T05:22:54.917Z,10.87
2023-05-10T05:26:56.389Z,10.97
2023-05-10T05:30:57.878Z,11.09
2023-05-10T05:34:59.402Z,11.20
2023-05-10T05:39:02.217Z,11.22
2023-05-10T05:43:03.682Z,11.31
2023-05-10T05:47:05.680Z,11.51
2023-05-10T05:51:07.368Z,11.60
2023-05-10T05:55:10.526Z,11.68
2023-05-10T05:59:12.447Z,11.77
2023-05-10T06:03:13.998Z,11.97
2023-05-10T06:07:15.535Z,12.05
2023-05-10T06:11:18.353Z,12.11
2023-05-10T06:15:19.849Z,12.24
2023-05-10T06:19:21.355Z,12.45
2023-05-10T06:23:22.835Z,12.55
2023-05-10T06:27:25.673Z,12.64
2023-05-10T06:31:27.324Z,12.80
2023-05-10T06:35:29.079Z,12.85
2023-05-10T06:39:30.551Z,13.01
2023-05-10T06:43:33.386Z,13.03
2023-05-10T06:47:36.541Z,13.21
2023-05-10T06:51:40.190Z,13.26
2023-05-10T06:55:41.704Z,13.38
2023-05-10T06:59:45.229Z,13.50
2023-05-10T07:03:46.716Z,13.61
2023-05-10T07:07:48.317Z,13.66
2023-05-10T07:11:49.792Z,13.83
2023-05-10T07:15:52.649Z,13.97
2023-05-10T07:19:54.152Z,14.17
2023-05-10T07:23:55.685Z,14.06
2023-05-10T07:27:57.158Z,14.38
2023-05-10T07:32:00.023Z,14.45
2023-05-10T07:36:01.820Z,14.70
2023-05-10T07:40:03.578Z,14.77
2023-05-10T07:44:05.329Z,14.81
2023-05-10T07:48:08.213Z,14.96
2023-05-10T07:52:09.769Z,15.07
2023-05-10T07:56:22.587Z,15.27
2023-05-10T08:00:24.085Z,15.28
2023-05-10T08:04:26.971Z,15.59
2023-05-10T08:08:28.519Z,15.44
2023-05-10T08:12:30.066Z,15.53
2023-05-10T08:16:31.724Z,15.71
2023-05-10T08:20:34.605Z,15.80
2023-05-10T08:24:36.076Z,15.90
2023-05-10T08:28:37.547Z,16.26
2023-05-10T08:32:39.076Z,16.26
2023-05-10T08:36:41.955Z,16.42
2023-05-10T08:40:45.116Z,16.40
2023-05-10T08:44:49.690Z,16.56
2023-05-10T08:48:52.381Z,16.68
2023-05-10T08:52:58.561Z,16.65
2023-05-10T08:57:00.200Z,16.75
2023-05-10T09:01:02.216Z,17.04
2023-05-10T09:05:04.342Z,16.96
2023-05-10T09:09:07.442Z,17.10
2023-05-10T09:13:10.921Z,17.32
2023-05-10T09:17:12.665Z,17.33
2023-05-10T09:21:14.895Z,17.38
2023-05-10T09:25:18.107Z,17.50
2023-05-10T09:29:19.935Z,17.58
2023-05-10T09:33:21.581Z,17.91
2023-05-10T09:37:30.347Z,18.02
2023-05-10T09:41:34.132Z,17.99
2023-05-10T09:45:38.566Z,17.91
2023-05-10T09:49:42.555Z,18.32
2023-05-10T09:53:44.152Z,18.28
2023-05-10T09:57:47.274Z,18.34
2023-05-10T10:01:50.694Z,18.14
2023-05-10T10:05:52.210Z,18.60
2023-05-10T10:09:54.263Z,18.70
2023-05-10T10:13:57.109Z,19.36
2023-05-10T10:17:59.006Z,19.35
2023-05-10T10:22:01.332Z,19.63
2023-05-10T10:26:03.768Z,19.70
2023-05-10T10:30:16.782Z,19.68
2023-05-10T10:34:26.983Z,19.60
2023-05-10T10:38:37.653Z,19.48
2023-05-10T10:42:46.061Z,19.84
2023-05-10T10:47:04.945Z,20.06
2023-05-10T10:51:06.772Z,19.81
2023-05-10T10:55:10.525Z,20.36
2023-05-10T10:59:12.027Z,20.41
2023-05-10T11:03:14.883Z,20.46
2023-05-10T11:07:20.269Z,20.44
2023-05-10T11:11:21.812Z,20.79
2023-05-10T11:15:29.873Z,20.85
2023-05-10T11:19:32.763Z,20.84
2023-05-10T11:23:49.725Z,20.67
2023-05-10T11:27:51.124Z,20.97
2023-05-10T11:31:52.646Z,20.74
2023-05-10T11:35:55.476Z,21.05
2023-05-10T11:39:56.970Z,21.15
2023-05-10T11:43:59.470Z,21.19
2023-05-10T11:48:02.298Z,21.62
2023-05-10T11:52:08.851Z,21.59
2023-05-10T11:56:11.268Z,21.07
2023-05-10T12:00:13.696Z,21.55
2023-05-10T12:04:15.484Z,21.68
2023-05-10T12:08:23.359Z,22.18
2023-05-10T12:12:24.897Z,22.88
2023-05-10T12:16:29.658Z,22.32
2023-05-10T12:20:31.201Z,22.61
2023-05-10T12:24:36.293Z,22.51
2023-05-10T12:28:38.790Z,23.28
2023-05-10T12:32:41.311Z,22.93
2023-05-10T12:36:42.841Z,22.80
2023-05-10T12:40:45.717Z,22.19
2023-05-10T12:44:47.221Z,21.86
2023-05-10T12:48:48.731Z,21.11
2023-05-10T12:52:50.227Z,20.78
2023-05-10T12:56:53.070Z,20.68
2023-05-10T13:00:54.759Z,20.66
2023-05-10T13:04:56.400Z,20.33
2023-05-10T13:08:57.922Z,19.88
2023-05-10T13:13:00.821Z,19.40
2023-05-10T13:17:02.359Z,19.01
2023-05-10T13:21:04.195Z,19.31
2023-05-10T13:25:06.340Z,19.20
2023-05-10T13:29:09.539Z,19.93
2023-05-10T13:33:11.030Z,20.06
2023-05-10T13:37:12.527Z,19.98
2023-05-10T13:41:14.007Z,20.20
2023-05-10T13:45:17.005Z,19.76
2023-05-10T13:49:18.603Z,19.51
2023-05-10T13:53:20.105Z,20.18
2023-05-10T13:57:21.666Z,20.66
2023-05-10T14:01:24.630Z,20.72
2023-05-10T14:05:26.690Z,21.48
2023-05-10T14:09:28.356Z,21.63
2023-05-10T14:13:29.978Z,21.33
2023-05-10T14:17:32.911Z,20.74
2023-05-10T14:21:34.412Z,21.55
2023-05-10T14:25:36.339Z,21.81
2023-05-10T14:29:37.826Z,21.21
2023-05-10T14:33:40.670Z,21.35
2023-05-10T14:37:42.147Z,20.77
2023-05-10T14:41:43.624Z,20.73
2023-05-10T14:45:45.220Z,20.28
2023-05-10T14:49:48.093Z,19.66
2023-05-10T14:53:49.651Z,19.84
2023-05-10T14:57:51.127Z,20.09
2023-05-10T15:01:52.740Z,19.82
2023-05-10T15:05:56.129Z,19.42
2023-05-10T15:09:57.600Z,19.17
2023-05-10T15:13:59.159Z,18.73
2023-05-10T15:18:00.757Z,19.22
2023-05-10T15:22:04.843Z,19.29
2023-05-10T15:26:06.371Z,19.56
2023-05-10T15:30:08.984Z,19.41
2023-05-10T15:34:10.507Z,19.70
2023-05-10T15:38:13.372Z,19.43
2023-05-10T15:42:14.890Z,18.97
2023-05-10T15:46:16.453Z,18.15
2023-05-10T15:50:18.062Z,18.39
2023-05-10T15:54:20.937Z,18.44
2023-05-10T15:58:22.551Z,18.24
2023-05-10T16:02:24.177Z,17.83
2023-05-10T16:06:25.726Z,17.72
2023-05-10T16:10:31.870Z,17.42
2023-05-10T16:14:33.344Z,17.04
2023-05-10T16:18:35.196Z,17.19
2023-05-10T16:22:36.844Z,17.08
2023-05-10T16:26:39.699Z,17.11
2023-05-10T16:30:41.237Z,17.08
2023-05-10T16:34:42.788Z,17.02
2023-05-10T16:38:44.261Z,16.90
2023-05-10T16:42:47.324Z,16.74
2023-05-10T16:46:48.887Z,16.69
2023-05-10T16:50:50.465Z,16.87
2023-05-10T16:54:54.100Z,16.75
2023-05-10T16:58:56.924Z,16.65
2023-05-10T17:02:58.534Z,16.59
2023-05-10T17:07:00.054Z,16.52
2023-05-10T17:11:01.670Z,16.36
2023-05-10T17:15:05.934Z,16.32
2023-05-10T17:19:08.142Z,16.11
2023-05-10T17:23:09.685Z,15.96
2023-05-10T17:27:11.238Z,15.84
2023-05-10T17:31:14.181Z,15.69
2023-05-10T17:35:16.150Z,15.49
2023-05-10T17:39:17.875Z,15.54
2023-05-10T17:43:20.410Z,15.32
2023-05-10T17:47:23.282Z,15.27
2023-05-10T17:51:24.882Z,15.23
2023-05-10T17:55:26.378Z,15.23
2023-05-10T17:59:27.917Z,15.18
2023-05-10T18:03:30.721Z,15.19
2023-05-10T18:07:32.214Z,14.98
2023-05-10T18:11:34.896Z,14.96
2023-05-10T18:15:36.453Z,14.91
2023-05-10T18:19:39.633Z,14.81
2023-05-10T18:23:41.098Z,14.65
2023-05-10T18:27:42.594Z,14.55
2023-05-10T18:31:44.149Z,14.52
2023-05-10T18:35:47.099Z,14.46
2023-05-10T18:39:48.621Z,14.41
2023-05-10T18:43:50.091Z,14.31
2023-05-10T18:47:51.614Z,14.27
2023-05-10T18:51:54.582Z,14.22
2023-05-10T18:55:56.422Z,14.23
2023-05-10T18:59:57.902Z,14.15
2023-05-10T19:03:59.436Z,14.06
2023-05-10T19:08:02.281Z,14.02
2023-05-10T19:12:04.004Z,13.87
2023-05-10T19:16:06.464Z,13.61
2023-05-10T19:20:08.572Z,13.47
2023-05-10T19:24:11.968Z,13.32
2023-05-10T19:28:13.527Z,13.34
2023-05-10T19:32:15.246Z,13.44
2023-05-10T19:36:16.742Z,13.44
2023-05-10T19:40:19.650Z,13.33
2023-05-10T19:44:21.168Z,13.28
2023-05-10T19:48:22.651Z,13.20
2023-05-10T19:52:24.135Z,13.10
2023-05-10T19:56:26.979Z,13.13
2023-05-10T20:00:28.679Z,12.97
2023-05-10T20:04:30.163Z,13.01
2023-05-10T20:08:31.668Z,13.02
2023-05-10T20:12:34.496Z,12.84
2023-05-10T20:16:36.027Z,12.64
2023-05-10T20:20:37.544Z,12.36
2023-05-10T20:24:39.040Z,12.05
2023-05-10T20:28:41.849Z,11.75
2023-05-10T20:32:43.519Z,11.59
2023-05-10T20:36:45.032Z,11.38
2023-05-10T20:40:46.598Z,11.28
2023-05-10T20:44:49.838Z,11.21
2023-05-10T20:48:51.326Z,11.23
2023-05-10T20:52:52.803Z,11.11
2023-05-10T20:56:54.296Z,11.01
2023-05-10T21:00:57.207Z,11.03
2023-05-10T21:04:59.587Z,11.05
2023-05-10T21:09:01.189Z,10.98
2023-05-10T21:13:02.708Z,10.86
2023-05-10T21:17:05.565Z,10.84
2023-05-10T21:21:07.115Z,10.88
2023-05-10T21:25:09.386Z,10.85
2023-05-10T21:29:10.881Z,10.73
2023-05-10T21:33:13.795Z,10.59
2023-05-10T21:37:15.663Z,10.49
2023-05-10T21:41:17.223Z,10.60
2023-05-10T21:45:19.850Z,10.39
2023-05-10T21:49:22.712Z,10.25
2023-05-10T21:53:24.220Z,10.24
2023-05-10T21:57:25.701Z,10.13
2023-05-10T22:01:27.354Z,10.14
2023-05-10T22:05:30.359Z,10.12
2023-05-10T22:09:31.837Z,10.17
2023-05-10T22:13:33.304Z,10.16
2023-05-10T22:17:34.838Z,10.40
2023-05-10T22:21:37.680Z,10.56
2023-05-10T22:25:39.190Z,10.61
2023-05-10T22:29:40.679Z,10.49
2023-05-10T22:33:42.178Z,10.33
2023-05-10T22:37:45.070Z,10.40
2023-05-10T22:41:46.605Z,10.40
2023-05-10T22:45:48.081Z,10.33
2023-05-10T22:49:49.640Z,10.27
2023-05-10T22:53:52.459Z,10.36
2023-05-10T22:57:54.137Z,10.27
2023-05-10T23:01:55.757Z,9.97
2023-05-10T23:05:57.254Z,9.89
2023-05-10T23:10:00.082Z,9.89
2023-05-10T23:14:01.592Z,9.79
2023-05-10T23:18:03.129Z,9.81
2023-05-10T23:22:04.602Z,9.52
2023-05-10T23:26:07.421Z,9.61
2023-05-10T23:30:09.872Z,9.78
2023-05-10T23:34:11.399Z,9.52
2023-05-10T23:38:12.896Z,9.27
2023-05-10T23:42:15.733Z,9.21
2023-05-10T23:46:17.284Z,9.06
2023-05-10T23:50:18.969Z,8.84
2023-05-10T23:54:20.649Z,8.44
2023-05-10T23:58:24.572Z,8.59
